sensor_id;sensor_type;location;lat;lon;timestamp;P1;durP1;ratioP1;P2;durP2;ratioP2
20122;SDS011;10222;50.848;4.336;2024-02-26T00:00:37;3.37;;;1.10;;
20122;SDS011;10222;50.848;4.336;2024-02-26T00:03:03;1.30;;;0.90;;
20122;SDS011;10222;50.848;4.336;2024-02-26T00:05:29;2.87;;;1.27;;
20122;SDS011;10222;50.848;4.336;2024-02-26T00:07:56;2.63;;;1.23;;
20122;SDS011;10222;50.848;4.336;2024-02-26T00:10:22;2.20;;;1.07;;
20122;SDS011;10222;50.848;4.336;2024-02-26T00:12:49;1.07;;;0.90;;
20122;SDS011;10222;50.848;4.336;2024-02-26T00:15:15;2.13;;;1.10;;
20122;SDS011;10222;50.848;4.336;2024-02-26T00:17:41;2.03;;;0.93;;
20122;SDS011;10222;50.848;4.336;2024-02-26T00:20:07;5.10;;;1.10;;
20122;SDS011;10222;50.848;4.336;2024-02-26T00:22:33;0.93;;;0.83;;
20122;SDS011;10222;50.848;4.336;2024-02-26T00:25:00;1.47;;;0.90;;
20122;SDS011;10222;50.848;4.336;2024-02-26T00:27:26;2.67;;;1.40;;
20122;SDS011;10222;50.848;4.336;2024-02-26T00:29:52;2.30;;;1.10;;
20122;SDS011;10222;50.848;4.336;2024-02-26T00:32:18;3.40;;;1.23;;
20122;SDS011;10222;50.848;4.336;2024-02-26T00:34:45;1.10;;;0.90;;
20122;SDS011;10222;50.848;4.336;2024-02-26T00:37:11;2.70;;;1.10;;
20122;SDS011;10222;50.848;4.336;2024-02-26T00:39:37;3.07;;;1.23;;
20122;SDS011;10222;50.848;4.336;2024-02-26T00:42:04;3.83;;;1.37;;
20122;SDS011;10222;50.848;4.336;2024-02-26T00:44:30;1.63;;;1.23;;
20122;SDS011;10222;50.848;4.336;2024-02-26T00:46:57;2.00;;;1.00;;
20122;SDS011;10222;50.848;4.336;2024-02-26T00:49:22;1.50;;;0.93;;
20122;SDS011;10222;50.848;4.336;2024-02-26T00:51:48;2.23;;;1.00;;
20122;SDS011;10222;50.848;4.336;2024-02-26T00:54:15;1.30;;;0.90;;
20122;SDS011;10222;50.848;4.336;2024-02-26T00:56:41;2.67;;;1.10;;
20122;SDS011;10222;50.848;4.336;2024-02-26T00:59:07;1.63;;;1.17;;
20122;SDS011;10222;50.848;4.336;2024-02-26T01:01:34;2.20;;;1.10;;
20122;SDS011;10222;50.848;4.336;2024-02-26T01:04:00;2.17;;;0.90;;
20122;SDS011;10222;50.848;4.336;2024-02-26T01:06:28;2.50;;;1.20;;
20122;SDS011;10222;50.848;4.336;2024-02-26T01:08:54;3.20;;;0.80;;
20122;SDS011;10222;50.848;4.336;2024-02-26T01:11:20;2.30;;;0.90;;
20122;SDS011;10222;50.848;4.336;2024-02-26T01:13:46;3.73;;;1.50;;
20122;SDS011;10222;50.848;4.336;2024-02-26T01:16:12;1.07;;;0.90;;
20122;SDS011;10222;50.848;4.336;2024-02-26T01:18:38;3.43;;;0.90;;
20122;SDS011;10222;50.848;4.336;2024-02-26T01:21:04;2.67;;;1.00;;
20122;SDS011;10222;50.848;4.336;2024-02-26T01:23:33;2.40;;;1.20;;
20122;SDS011;10222;50.848;4.336;2024-02-26T01:25:59;1.43;;;0.90;;
20122;SDS011;10222;50.848;4.336;2024-02-26T01:28:25;2.03;;;1.10;;
20122;SDS011;10222;50.848;4.336;2024-02-26T01:30:51;1.17;;;1.07;;
20122;SDS011;10222;50.848;4.336;2024-02-26T01:33:17;3.33;;;1.40;;
20122;SDS011;10222;50.848;4.336;2024-02-26T01:35:43;3.23;;;1.17;;
20122;SDS011;10222;50.848;4.336;2024-02-26T01:38:09;4.90;;;1.10;;
20122;SDS011;10222;50.848;4.336;2024-02-26T01:40:35;3.30;;;1.33;;
20122;SDS011;10222;50.848;4.336;2024-02-26T01:43:01;2.40;;;1.10;;
20122;SDS011;10222;50.848;4.336;2024-02-26T01:45:27;1.63;;;0.90;;
20122;SDS011;10222;50.848;4.336;2024-02-26T01:47:53;1.70;;;1.10;;
20122;SDS011;10222;50.848;4.336;2024-02-26T01:50:20;2.43;;;1.07;;
20122;SDS011;10222;50.848;4.336;2024-02-26T01:52:47;2.70;;;0.90;;
20122;SDS011;10222;50.848;4.336;2024-02-26T01:55:13;1.90;;;0.90;;
20122;SDS011;10222;50.848;4.336;2024-02-26T01:57:40;1.33;;;0.80;;
20122;SDS011;10222;50.848;4.336;2024-02-26T02:00:06;1.10;;;0.83;;
20122;SDS011;10222;50.848;4.336;2024-02-26T02:02:33;1.67;;;0.87;;
20122;SDS011;10222;50.848;4.336;2024-02-26T02:05:00;1.80;;;0.87;;
20122;SDS011;10222;50.848;4.336;2024-02-26T02:07:26;3.27;;;0.90;;
20122;SDS011;10222;50.848;4.336;2024-02-26T02:09:54;3.33;;;1.03;;
20122;SDS011;10222;50.848;4.336;2024-02-26T02:12:20;2.40;;;0.90;;
20122;SDS011;10222;50.848;4.336;2024-02-26T02:14:47;0.90;;;0.70;;
20122;SDS011;10222;50.848;4.336;2024-02-26T02:17:13;1.70;;;0.80;;
20122;SDS011;10222;50.848;4.336;2024-02-26T02:19:39;2.10;;;0.93;;
20122;SDS011;10222;50.848;4.336;2024-02-26T02:22:07;0.70;;;0.70;;
20122;SDS011;10222;50.848;4.336;2024-02-26T02:24:33;1.40;;;0.90;;
20122;SDS011;10222;50.848;4.336;2024-02-26T02:26:59;2.63;;;0.90;;
20122;SDS011;10222;50.848;4.336;2024-02-26T02:29:25;2.83;;;0.90;;
20122;SDS011;10222;50.848;4.336;2024-02-26T02:31:52;1.43;;;0.93;;
20122;SDS011;10222;50.848;4.336;2024-02-26T02:34:19;1.77;;;0.87;;
20122;SDS011;10222;50.848;4.336;2024-02-26T02:36:51;1.00;;;0.87;;
20122;SDS011;10222;50.848;4.336;2024-02-26T02:39:18;0.87;;;0.80;;
20122;SDS011;10222;50.848;4.336;2024-02-26T02:41:45;3.07;;;1.17;;
20122;SDS011;10222;50.848;4.336;2024-02-26T02:44:11;1.10;;;0.80;;
20122;SDS011;10222;50.848;4.336;2024-02-26T02:46:37;2.70;;;1.07;;
20122;SDS011;10222;50.848;4.336;2024-02-26T02:49:03;1.30;;;0.97;;
20122;SDS011;10222;50.848;4.336;2024-02-26T02:51:29;1.07;;;0.70;;
20122;SDS011;10222;50.848;4.336;2024-02-26T02:53:55;2.63;;;0.93;;
20122;SDS011;10222;50.848;4.336;2024-02-26T02:56:21;1.30;;;0.90;;
20122;SDS011;10222;50.848;4.336;2024-02-26T02:58:47;0.80;;;0.70;;
20122;SDS011;10222;50.848;4.336;2024-02-26T03:01:13;1.13;;;0.80;;
20122;SDS011;10222;50.848;4.336;2024-02-26T03:03:39;2.97;;;0.97;;
20122;SDS011;10222;50.848;4.336;2024-02-26T03:06:05;1.30;;;0.80;;
20122;SDS011;10222;50.848;4.336;2024-02-26T03:08:31;1.00;;;0.90;;
20122;SDS011;10222;50.848;4.336;2024-02-26T03:10:58;1.10;;;0.80;;
20122;SDS011;10222;50.848;4.336;2024-02-26T03:13:24;2.40;;;0.80;;
20122;SDS011;10222;50.848;4.336;2024-02-26T03:15:50;2.80;;;1.30;;
20122;SDS011;10222;50.848;4.336;2024-02-26T03:18:16;2.13;;;0.97;;
20122;SDS011;10222;50.848;4.336;2024-02-26T03:20:42;3.97;;;0.83;;
20122;SDS011;10222;50.848;4.336;2024-02-26T03:23:08;2.73;;;0.80;;
20122;SDS011;10222;50.848;4.336;2024-02-26T03:25:38;1.87;;;0.90;;
20122;SDS011;10222;50.848;4.336;2024-02-26T03:28:05;0.70;;;0.70;;
20122;SDS011;10222;50.848;4.336;2024-02-26T03:30:31;1.60;;;1.07;;
20122;SDS011;10222;50.848;4.336;2024-02-26T03:32:57;1.70;;;1.07;;
20122;SDS011;10222;50.848;4.336;2024-02-26T03:35:23;1.77;;;0.90;;
20122;SDS011;10222;50.848;4.336;2024-02-26T03:37:50;2.50;;;0.97;;
20122;SDS011;10222;50.848;4.336;2024-02-26T03:40:16;2.17;;;1.10;;
20122;SDS011;10222;50.848;4.336;2024-02-26T03:42:44;1.43;;;1.20;;
20122;SDS011;10222;50.848;4.336;2024-02-26T03:45:10;1.17;;;0.87;;
20122;SDS011;10222;50.848;4.336;2024-02-26T03:47:37;1.10;;;0.90;;
20122;SDS011;10222;50.848;4.336;2024-02-26T03:50:06;1.73;;;0.97;;
20122;SDS011;10222;50.848;4.336;2024-02-26T03:52:33;1.80;;;1.00;;
20122;SDS011;10222;50.848;4.336;2024-02-26T03:54:59;2.00;;;1.00;;
20122;SDS011;10222;50.848;4.336;2024-02-26T03:57:25;1.27;;;0.77;;
20122;SDS011;10222;50.848;4.336;2024-02-26T03:59:51;1.67;;;1.17;;
20122;SDS011;10222;50.848;4.336;2024-02-26T04:02:18;0.80;;;0.80;;
20122;SDS011;10222;50.848;4.336;2024-02-26T04:04:48;2.50;;;1.03;;
20122;SDS011;10222;50.848;4.336;2024-02-26T04:07:14;1.10;;;1.00;;
20122;SDS011;10222;50.848;4.336;2024-02-26T04:09:40;3.93;;;1.10;;
20122;SDS011;10222;50.848;4.336;2024-02-26T04:12:06;3.97;;;1.47;;
20122;SDS011;10222;50.848;4.336;2024-02-26T04:14:32;3.13;;;1.10;;
20122;SDS011;10222;50.848;4.336;2024-02-26T04:16:58;2.53;;;1.07;;
20122;SDS011;10222;50.848;4.336;2024-02-26T04:19:24;2.17;;;1.10;;
20122;SDS011;10222;50.848;4.336;2024-02-26T04:21:50;1.97;;;1.27;;
20122;SDS011;10222;50.848;4.336;2024-02-26T04:24:17;2.67;;;1.33;;
20122;SDS011;10222;50.848;4.336;2024-02-26T04:26:43;2.67;;;1.97;;
20122;SDS011;10222;50.848;4.336;2024-02-26T04:29:10;3.87;;;1.90;;
20122;SDS011;10222;50.848;4.336;2024-02-26T04:31:39;2.53;;;1.87;;
20122;SDS011;10222;50.848;4.336;2024-02-26T04:34:07;4.77;;;2.37;;
20122;SDS011;10222;50.848;4.336;2024-02-26T04:36:33;3.07;;;2.47;;
20122;SDS011;10222;50.848;4.336;2024-02-26T04:38:59;4.87;;;2.57;;
20122;SDS011;10222;50.848;4.336;2024-02-26T04:41:25;2.97;;;2.43;;
20122;SDS011;10222;50.848;4.336;2024-02-26T04:43:51;2.60;;;2.30;;
20122;SDS011;10222;50.848;4.336;2024-02-26T04:46:17;4.30;;;2.40;;
20122;SDS011;10222;50.848;4.336;2024-02-26T04:48:44;3.63;;;2.83;;
20122;SDS011;10222;50.848;4.336;2024-02-26T04:51:11;3.07;;;2.40;;
20122;SDS011;10222;50.848;4.336;2024-02-26T04:53:38;2.93;;;2.50;;
20122;SDS011;10222;50.848;4.336;2024-02-26T04:56:04;3.63;;;2.50;;
20122;SDS011;10222;50.848;4.336;2024-02-26T04:58:30;5.57;;;2.70;;
20122;SDS011;10222;50.848;4.336;2024-02-26T05:00:56;2.87;;;2.23;;
20122;SDS011;10222;50.848;4.336;2024-02-26T05:03:23;3.73;;;2.77;;
20122;SDS011;10222;50.848;4.336;2024-02-26T05:05:49;3.07;;;2.40;;
20122;SDS011;10222;50.848;4.336;2024-02-26T05:08:15;3.90;;;2.70;;
20122;SDS011;10222;50.848;4.336;2024-02-26T05:10:42;4.50;;;3.07;;
20122;SDS011;10222;50.848;4.336;2024-02-26T05:13:08;5.27;;;3.00;;
20122;SDS011;10222;50.848;4.336;2024-02-26T05:15:34;4.57;;;3.10;;
20122;SDS011;10222;50.848;4.336;2024-02-26T05:18:01;4.33;;;3.17;;
20122;SDS011;10222;50.848;4.336;2024-02-26T05:20:28;4.50;;;3.30;;
20122;SDS011;10222;50.848;4.336;2024-02-26T05:22:54;4.30;;;3.33;;
20122;SDS011;10222;50.848;4.336;2024-02-26T05:25:20;5.23;;;3.13;;
20122;SDS011;10222;50.848;4.336;2024-02-26T05:27:46;5.10;;;3.60;;
20122;SDS011;10222;50.848;4.336;2024-02-26T05:30:12;5.63;;;3.80;;
20122;SDS011;10222;50.848;4.336;2024-02-26T05:32:38;7.37;;;3.83;;
20122;SDS011;10222;50.848;4.336;2024-02-26T05:35:05;4.60;;;3.90;;
20122;SDS011;10222;50.848;4.336;2024-02-26T05:37:31;8.37;;;4.50;;
20122;SDS011;10222;50.848;4.336;2024-02-26T05:39:57;7.13;;;4.73;;
20122;SDS011;10222;50.848;4.336;2024-02-26T05:42:23;10.03;;;5.50;;
20122;SDS011;10222;50.848;4.336;2024-02-26T05:44:49;7.13;;;4.80;;
20122;SDS011;10222;50.848;4.336;2024-02-26T05:47:15;8.53;;;5.60;;
20122;SDS011;10222;50.848;4.336;2024-02-26T05:49:42;8.13;;;5.30;;
20122;SDS011;10222;50.848;4.336;2024-02-26T05:52:08;8.33;;;5.17;;
20122;SDS011;10222;50.848;4.336;2024-02-26T05:54:34;6.60;;;5.23;;
20122;SDS011;10222;50.848;4.336;2024-02-26T05:57:01;7.80;;;5.30;;
20122;SDS011;10222;50.848;4.336;2024-02-26T05:59:27;7.93;;;5.67;;
20122;SDS011;10222;50.848;4.336;2024-02-26T06:01:53;7.63;;;5.37;;
20122;SDS011;10222;50.848;4.336;2024-02-26T06:04:19;9.93;;;5.80;;
20122;SDS011;10222;50.848;4.336;2024-02-26T06:06:45;7.40;;;5.23;;
20122;SDS011;10222;50.848;4.336;2024-02-26T06:09:12;8.43;;;5.90;;
20122;SDS011;10222;50.848;4.336;2024-02-26T06:11:38;10.03;;;5.47;;
20122;SDS011;10222;50.848;4.336;2024-02-26T06:14:04;7.07;;;5.30;;
20122;SDS011;10222;50.848;4.336;2024-02-26T06:16:31;8.03;;;5.40;;
20122;SDS011;10222;50.848;4.336;2024-02-26T06:18:57;8.40;;;5.23;;
20122;SDS011;10222;50.848;4.336;2024-02-26T06:21:24;6.97;;;5.33;;
20122;SDS011;10222;50.848;4.336;2024-02-26T06:23:51;6.73;;;5.30;;
20122;SDS011;10222;50.848;4.336;2024-02-26T06:26:17;8.33;;;5.37;;
20122;SDS011;10222;50.848;4.336;2024-02-26T06:28:43;9.73;;;5.30;;
20122;SDS011;10222;50.848;4.336;2024-02-26T06:31:09;8.10;;;5.87;;
20122;SDS011;10222;50.848;4.336;2024-02-26T06:33:35;7.43;;;5.60;;
20122;SDS011;10222;50.848;4.336;2024-02-26T06:36:01;7.13;;;5.27;;
20122;SDS011;10222;50.848;4.336;2024-02-26T06:38:27;6.60;;;5.17;;
20122;SDS011;10222;50.848;4.336;2024-02-26T06:40:53;8.57;;;5.30;;
20122;SDS011;10222;50.848;4.336;2024-02-26T06:43:19;7.30;;;5.10;;
20122;SDS011;10222;50.848;4.336;2024-02-26T06:45:45;5.87;;;5.27;;
20122;SDS011;10222;50.848;4.336;2024-02-26T06:48:11;6.60;;;5.17;;
20122;SDS011;10222;50.848;4.336;2024-02-26T06:50:37;7.13;;;5.37;;
20122;SDS011;10222;50.848;4.336;2024-02-26T06:53:03;7.93;;;5.17;;
20122;SDS011;10222;50.848;4.336;2024-02-26T06:55:31;10.13;;;5.37;;
20122;SDS011;10222;50.848;4.336;2024-02-26T06:57:57;6.20;;;4.90;;
20122;SDS011;10222;50.848;4.336;2024-02-26T07:00:24;6.03;;;5.00;;
20122;SDS011;10222;50.848;4.336;2024-02-26T07:02:50;7.17;;;5.60;;
20122;SDS011;10222;50.848;4.336;2024-02-26T07:05:16;11.70;;;6.20;;
20122;SDS011;10222;50.848;4.336;2024-02-26T07:07:42;6.37;;;5.17;;
20122;SDS011;10222;50.848;4.336;2024-02-26T07:10:09;6.97;;;5.23;;
20122;SDS011;10222;50.848;4.336;2024-02-26T07:12:37;7.40;;;5.77;;
20122;SDS011;10222;50.848;4.336;2024-02-26T07:15:04;7.33;;;5.67;;
20122;SDS011;10222;50.848;4.336;2024-02-26T07:17:32;7.83;;;5.70;;
20122;SDS011;10222;50.848;4.336;2024-02-26T07:20:02;7.23;;;5.70;;
20122;SDS011;10222;50.848;4.336;2024-02-26T07:22:30;6.50;;;5.23;;
20122;SDS011;10222;50.848;4.336;2024-02-26T07:24:56;7.73;;;5.93;;
20122;SDS011;10222;50.848;4.336;2024-02-26T07:27:23;6.80;;;5.93;;
20122;SDS011;10222;50.848;4.336;2024-02-26T07:29:50;8.07;;;6.07;;
20122;SDS011;10222;50.848;4.336;2024-02-26T07:32:16;6.47;;;5.10;;
20122;SDS011;10222;50.848;4.336;2024-02-26T07:34:42;8.10;;;5.90;;
20122;SDS011;10222;50.848;4.336;2024-02-26T07:37:09;7.03;;;5.83;;
20122;SDS011;10222;50.848;4.336;2024-02-26T07:39:35;8.13;;;5.67;;
20122;SDS011;10222;50.848;4.336;2024-02-26T07:42:01;6.90;;;5.60;;
20122;SDS011;10222;50.848;4.336;2024-02-26T07:44:28;9.30;;;6.20;;
20122;SDS011;10222;50.848;4.336;2024-02-26T07:46:54;5.83;;;5.13;;
20122;SDS011;10222;50.848;4.336;2024-02-26T07:49:20;8.13;;;5.60;;
20122;SDS011;10222;50.848;4.336;2024-02-26T07:51:46;8.20;;;5.80;;
20122;SDS011;10222;50.848;4.336;2024-02-26T07:54:13;6.40;;;5.60;;
20122;SDS011;10222;50.848;4.336;2024-02-26T07:56:41;7.47;;;5.43;;
20122;SDS011;10222;50.848;4.336;2024-02-26T07:59:07;7.73;;;5.93;;
20122;SDS011;10222;50.848;4.336;2024-02-26T08:01:34;6.93;;;5.50;;
20122;SDS011;10222;50.848;4.336;2024-02-26T08:04:00;7.10;;;5.73;;
20122;SDS011;10222;50.848;4.336;2024-02-26T08:06:28;8.33;;;5.07;;
20122;SDS011;10222;50.848;4.336;2024-02-26T08:08:54;5.87;;;4.93;;
20122;SDS011;10222;50.848;4.336;2024-02-26T08:11:20;6.63;;;5.43;;
20122;SDS011;10222;50.848;4.336;2024-02-26T08:13:47;7.70;;;5.53;;
20122;SDS011;10222;50.848;4.336;2024-02-26T08:16:13;6.23;;;4.90;;
20122;SDS011;10222;50.848;4.336;2024-02-26T08:18:39;5.63;;;5.00;;
20122;SDS011;10222;50.848;4.336;2024-02-26T08:21:05;6.93;;;5.33;;
20122;SDS011;10222;50.848;4.336;2024-02-26T08:23:31;5.70;;;4.60;;
20122;SDS011;10222;50.848;4.336;2024-02-26T08:25:57;5.73;;;5.10;;
20122;SDS011;10222;50.848;4.336;2024-02-26T08:28:23;5.47;;;4.20;;
20122;SDS011;10222;50.848;4.336;2024-02-26T08:30:49;5.63;;;4.93;;
20122;SDS011;10222;50.848;4.336;2024-02-26T08:33:15;5.17;;;4.57;;
20122;SDS011;10222;50.848;4.336;2024-02-26T08:35:41;6.23;;;4.77;;
20122;SDS011;10222;50.848;4.336;2024-02-26T08:38:07;5.30;;;4.47;;
20122;SDS011;10222;50.848;4.336;2024-02-26T08:40:33;5.93;;;4.60;;
20122;SDS011;10222;50.848;4.336;2024-02-26T08:42:59;4.63;;;4.03;;
20122;SDS011;10222;50.848;4.336;2024-02-26T08:45:25;4.57;;;4.07;;
20122;SDS011;10222;50.848;4.336;2024-02-26T08:47:52;5.77;;;4.40;;
20122;SDS011;10222;50.848;4.336;2024-02-26T08:50:18;6.60;;;4.70;;
20122;SDS011;10222;50.848;4.336;2024-02-26T08:52:44;5.43;;;4.63;;
20122;SDS011;10222;50.848;4.336;2024-02-26T08:55:13;6.13;;;4.67;;
20122;SDS011;10222;50.848;4.336;2024-02-26T08:57:39;6.50;;;4.67;;
20122;SDS011;10222;50.848;4.336;2024-02-26T09:00:05;6.57;;;4.60;;
20122;SDS011;10222;50.848;4.336;2024-02-26T09:02:32;5.97;;;5.13;;
20122;SDS011;10222;50.848;4.336;2024-02-26T09:04:58;4.93;;;4.00;;
20122;SDS011;10222;50.848;4.336;2024-02-26T09:07:24;7.07;;;4.67;;
20122;SDS011;10222;50.848;4.336;2024-02-26T09:09:50;6.20;;;4.10;;
20122;SDS011;10222;50.848;4.336;2024-02-26T09:12:16;5.27;;;4.20;;
20122;SDS011;10222;50.848;4.336;2024-02-26T09:14:42;4.53;;;3.80;;
20122;SDS011;10222;50.848;4.336;2024-02-26T09:17:08;4.87;;;4.23;;
20122;SDS011;10222;50.848;4.336;2024-02-26T09:19:34;5.20;;;4.67;;
20122;SDS011;10222;50.848;4.336;2024-02-26T09:22:00;4.23;;;3.83;;
20122;SDS011;10222;50.848;4.336;2024-02-26T09:24:26;5.57;;;4.43;;
20122;SDS011;10222;50.848;4.336;2024-02-26T09:26:52;5.90;;;4.40;;
20122;SDS011;10222;50.848;4.336;2024-02-26T09:29:18;6.30;;;4.10;;
20122;SDS011;10222;50.848;4.336;2024-02-26T09:31:44;5.23;;;4.40;;
20122;SDS011;10222;50.848;4.336;2024-02-26T09:34:12;5.30;;;4.20;;
20122;SDS011;10222;50.848;4.336;2024-02-26T09:36:38;6.13;;;4.50;;
20122;SDS011;10222;50.848;4.336;2024-02-26T09:39:04;5.07;;;4.40;;
20122;SDS011;10222;50.848;4.336;2024-02-26T09:41:32;8.73;;;4.77;;
20122;SDS011;10222;50.848;4.336;2024-02-26T09:43:58;6.80;;;5.13;;
20122;SDS011;10222;50.848;4.336;2024-02-26T09:46:27;6.70;;;4.90;;
20122;SDS011;10222;50.848;4.336;2024-02-26T09:48:54;5.17;;;4.27;;
20122;SDS011;10222;50.848;4.336;2024-02-26T09:51:21;5.83;;;4.40;;
20122;SDS011;10222;50.848;4.336;2024-02-26T09:53:52;6.13;;;4.70;;
20122;SDS011;10222;50.848;4.336;2024-02-26T09:56:18;6.10;;;4.70;;
20122;SDS011;10222;50.848;4.336;2024-02-26T09:58:44;6.47;;;4.50;;
20122;SDS011;10222;50.848;4.336;2024-02-26T10:01:18;6.57;;;3.83;;
20122;SDS011;10222;50.848;4.336;2024-02-26T10:03:44;5.73;;;4.27;;
20122;SDS011;10222;50.848;4.336;2024-02-26T10:06:13;5.23;;;4.20;;
20122;SDS011;10222;50.848;4.336;2024-02-26T10:08:39;4.47;;;3.70;;
20122;SDS011;10222;50.848;4.336;2024-02-26T10:11:06;5.43;;;3.97;;
20122;SDS011;10222;50.848;4.336;2024-02-26T10:13:34;6.50;;;4.13;;
20122;SDS011;10222;50.848;4.336;2024-02-26T10:16:01;6.37;;;4.23;;
20122;SDS011;10222;50.848;4.336;2024-02-26T10:18:44;4.80;;;4.23;;
20122;SDS011;10222;50.848;4.336;2024-02-26T10:21:10;5.23;;;3.90;;
20122;SDS011;10222;50.848;4.336;2024-02-26T10:23:36;5.87;;;4.17;;
20122;SDS011;10222;50.848;4.336;2024-02-26T10:26:02;5.23;;;4.33;;
20122;SDS011;10222;50.848;4.336;2024-02-26T10:28:30;6.53;;;4.50;;
20122;SDS011;10222;50.848;4.336;2024-02-26T10:30:56;5.83;;;3.80;;
20122;SDS011;10222;50.848;4.336;2024-02-26T10:33:22;5.60;;;3.80;;
20122;SDS011;10222;50.848;4.336;2024-02-26T10:35:48;4.67;;;4.17;;
20122;SDS011;10222;50.848;4.336;2024-02-26T10:38:14;4.93;;;3.50;;
20122;SDS011;10222;50.848;4.336;2024-02-26T10:40:45;5.23;;;3.73;;
20122;SDS011;10222;50.848;4.336;2024-02-26T10:43:11;3.93;;;3.30;;
20122;SDS011;10222;50.848;4.336;2024-02-26T10:45:39;5.07;;;3.80;;
20122;SDS011;10222;50.848;4.336;2024-02-26T10:48:14;4.40;;;3.40;;
20122;SDS011;10222;50.848;4.336;2024-02-26T10:50:41;5.00;;;3.30;;
20122;SDS011;10222;50.848;4.336;2024-02-26T10:53:10;4.40;;;3.20;;
20122;SDS011;10222;50.848;4.336;2024-02-26T10:55:40;6.00;;;3.67;;
20122;SDS011;10222;50.848;4.336;2024-02-26T10:58:06;3.50;;;3.17;;
20122;SDS011;10222;50.848;4.336;2024-02-26T11:00:34;4.63;;;3.47;;
20122;SDS011;10222;50.848;4.336;2024-02-26T11:03:01;4.33;;;2.90;;
20122;SDS011;10222;50.848;4.336;2024-02-26T11:05:28;4.80;;;3.30;;
20122;SDS011;10222;50.848;4.336;2024-02-26T11:07:55;4.07;;;3.13;;
20122;SDS011;10222;50.848;4.336;2024-02-26T11:10:23;3.13;;;2.70;;
20122;SDS011;10222;50.848;4.336;2024-02-26T11:12:50;4.23;;;2.63;;
20122;SDS011;10222;50.848;4.336;2024-02-26T11:15:16;6.40;;;3.20;;
20122;SDS011;10222;50.848;4.336;2024-02-26T11:17:43;2.53;;;2.33;;
20122;SDS011;10222;50.848;4.336;2024-02-26T11:20:10;3.63;;;2.30;;
20122;SDS011;10222;50.848;4.336;2024-02-26T11:22:37;3.00;;;2.50;;
20122;SDS011;10222;50.848;4.336;2024-02-26T11:25:03;4.47;;;2.50;;
20122;SDS011;10222;50.848;4.336;2024-02-26T11:27:30;3.03;;;2.33;;
20122;SDS011;10222;50.848;4.336;2024-02-26T11:29:59;2.73;;;2.20;;
20122;SDS011;10222;50.848;4.336;2024-02-26T11:32:26;3.47;;;2.10;;
20122;SDS011;10222;50.848;4.336;2024-02-26T11:34:55;3.53;;;2.30;;
20122;SDS011;10222;50.848;4.336;2024-02-26T11:37:21;2.23;;;1.87;;
20122;SDS011;10222;50.848;4.336;2024-02-26T11:39:48;2.83;;;2.00;;
20122;SDS011;10222;50.848;4.336;2024-02-26T11:42:16;2.13;;;1.83;;
20122;SDS011;10222;50.848;4.336;2024-02-26T11:44:43;2.00;;;1.73;;
20122;SDS011;10222;50.848;4.336;2024-02-26T11:47:13;3.07;;;1.93;;
20122;SDS011;10222;50.848;4.336;2024-02-26T11:49:39;2.80;;;1.87;;
20122;SDS011;10222;50.848;4.336;2024-02-26T11:52:06;2.37;;;2.17;;
20122;SDS011;10222;50.848;4.336;2024-02-26T11:54:37;2.50;;;1.77;;
20122;SDS011;10222;50.848;4.336;2024-02-26T11:57:03;2.70;;;2.30;;
20122;SDS011;10222;50.848;4.336;2024-02-26T11:59:39;2.87;;;2.13;;
20122;SDS011;10222;50.848;4.336;2024-02-26T12:02:07;3.13;;;2.13;;
20122;SDS011;10222;50.848;4.336;2024-02-26T12:04:33;3.63;;;2.23;;
20122;SDS011;10222;50.848;4.336;2024-02-26T12:07:01;2.30;;;2.00;;
20122;SDS011;10222;50.848;4.336;2024-02-26T12:09:41;2.93;;;2.67;;
20122;SDS011;10222;50.848;4.336;2024-02-26T12:12:08;4.23;;;2.47;;
20122;SDS011;10222;50.848;4.336;2024-02-26T12:14:38;4.97;;;2.70;;
20122;SDS011;10222;50.848;4.336;2024-02-26T12:17:04;2.60;;;2.40;;
20122;SDS011;10222;50.848;4.336;2024-02-26T12:19:35;2.77;;;2.50;;
20122;SDS011;10222;50.848;4.336;2024-02-26T12:22:01;3.33;;;2.27;;
20122;SDS011;10222;50.848;4.336;2024-02-26T12:24:27;3.73;;;2.73;;
20122;SDS011;10222;50.848;4.336;2024-02-26T12:26:53;4.67;;;2.40;;
20122;SDS011;10222;50.848;4.336;2024-02-26T12:29:19;3.63;;;2.67;;
20122;SDS011;10222;50.848;4.336;2024-02-26T12:31:46;2.63;;;2.40;;
20122;SDS011;10222;50.848;4.336;2024-02-26T12:34:14;3.50;;;2.53;;
20122;SDS011;10222;50.848;4.336;2024-02-26T12:36:41;2.53;;;2.33;;
20122;SDS011;10222;50.848;4.336;2024-02-26T12:39:07;3.20;;;2.80;;
20122;SDS011;10222;50.848;4.336;2024-02-26T12:41:34;4.30;;;2.30;;
20122;SDS011;10222;50.848;4.336;2024-02-26T12:44:00;4.03;;;2.60;;
20122;SDS011;10222;50.848;4.336;2024-02-26T12:46:27;5.43;;;2.63;;
20122;SDS011;10222;50.848;4.336;2024-02-26T12:48:55;4.07;;;2.80;;
20122;SDS011;10222;50.848;4.336;2024-02-26T12:51:23;3.53;;;3.00;;
20122;SDS011;10222;50.848;4.336;2024-02-26T12:53:49;4.03;;;2.83;;
20122;SDS011;10222;50.848;4.336;2024-02-26T12:56:18;3.60;;;2.50;;
20122;SDS011;10222;50.848;4.336;2024-02-26T12:58:44;3.87;;;2.93;;
20122;SDS011;10222;50.848;4.336;2024-02-26T13:01:13;4.27;;;2.97;;
20122;SDS011;10222;50.848;4.336;2024-02-26T13:03:40;3.33;;;2.60;;
20122;SDS011;10222;50.848;4.336;2024-02-26T13:06:06;3.43;;;2.67;;
20122;SDS011;10222;50.848;4.336;2024-02-26T13:08:32;6.77;;;3.00;;
20122;SDS011;10222;50.848;4.336;2024-02-26T13:10:59;4.67;;;2.97;;
20122;SDS011;10222;50.848;4.336;2024-02-26T13:13:25;3.23;;;2.93;;
20122;SDS011;10222;50.848;4.336;2024-02-26T13:16:02;4.50;;;2.67;;
20122;SDS011;10222;50.848;4.336;2024-02-26T13:18:30;4.27;;;3.47;;
20122;SDS011;10222;50.848;4.336;2024-02-26T13:21:06;3.87;;;2.93;;
20122;SDS011;10222;50.848;4.336;2024-02-26T13:23:33;3.90;;;3.00;;
20122;SDS011;10222;50.848;4.336;2024-02-26T13:25:59;3.73;;;2.80;;
20122;SDS011;10222;50.848;4.336;2024-02-26T13:28:25;4.50;;;3.33;;
20122;SDS011;10222;50.848;4.336;2024-02-26T13:30:56;3.77;;;2.53;;
20122;SDS011;10222;50.848;4.336;2024-02-26T13:33:23;4.37;;;3.37;;
20122;SDS011;10222;50.848;4.336;2024-02-26T13:35:49;4.80;;;3.30;;
20122;SDS011;10222;50.848;4.336;2024-02-26T13:38:15;4.13;;;3.50;;
20122;SDS011;10222;50.848;4.336;2024-02-26T13:40:42;8.47;;;3.67;;
20122;SDS011;10222;50.848;4.336;2024-02-26T13:43:08;6.30;;;4.07;;
20122;SDS011;10222;50.848;4.336;2024-02-26T13:45:34;6.13;;;4.17;;
20122;SDS011;10222;50.848;4.336;2024-02-26T13:48:04;5.07;;;3.90;;
20122;SDS011;10222;50.848;4.336;2024-02-26T13:50:31;4.63;;;3.57;;
20122;SDS011;10222;50.848;4.336;2024-02-26T13:52:57;4.20;;;3.80;;
20122;SDS011;10222;50.848;4.336;2024-02-26T13:55:26;3.93;;;3.23;;
20122;SDS011;10222;50.848;4.336;2024-02-26T13:57:55;6.10;;;3.90;;
20122;SDS011;10222;50.848;4.336;2024-02-26T14:00:21;7.17;;;4.13;;
20122;SDS011;10222;50.848;4.336;2024-02-26T14:02:47;4.30;;;3.57;;
20122;SDS011;10222;50.848;4.336;2024-02-26T14:05:14;4.53;;;3.53;;
20122;SDS011;10222;50.848;4.336;2024-02-26T14:07:40;5.73;;;4.33;;
20122;SDS011;10222;50.848;4.336;2024-02-26T14:10:06;5.83;;;4.10;;
20122;SDS011;10222;50.848;4.336;2024-02-26T14:12:32;5.33;;;3.63;;
20122;SDS011;10222;50.848;4.336;2024-02-26T14:14:58;4.67;;;3.90;;
20122;SDS011;10222;50.848;4.336;2024-02-26T14:17:26;6.17;;;4.00;;
20122;SDS011;10222;50.848;4.336;2024-02-26T14:19:52;7.37;;;3.97;;
20122;SDS011;10222;50.848;4.336;2024-02-26T14:22:18;5.83;;;4.10;;
20122;SDS011;10222;50.848;4.336;2024-02-26T14:24:44;5.73;;;3.57;;
20122;SDS011;10222;50.848;4.336;2024-02-26T14:27:10;6.07;;;3.87;;
20122;SDS011;10222;50.848;4.336;2024-02-26T14:29:40;5.93;;;3.97;;
20122;SDS011;10222;50.848;4.336;2024-02-26T14:32:08;5.83;;;4.07;;
20122;SDS011;10222;50.848;4.336;2024-02-26T14:34:34;8.03;;;4.33;;
20122;SDS011;10222;50.848;4.336;2024-02-26T14:37:00;6.17;;;4.30;;
20122;SDS011;10222;50.848;4.336;2024-02-26T14:39:26;6.63;;;3.83;;
20122;SDS011;10222;50.848;4.336;2024-02-26T14:41:52;8.27;;;3.80;;
20122;SDS011;10222;50.848;4.336;2024-02-26T14:44:18;7.63;;;4.40;;